createdAt,value
2022-08-25T00:00:20.530Z,2.22
2022-08-25T00:02:51.643Z,2.38
2022-08-25T00:05:29.108Z,2.53
2022-08-25T00:07:58.465Z,2.60
2022-08-25T00:10:26.321Z,2.45
2022-08-25T00:12:54.579Z,2.70
2022-08-25T00:15:23.950Z,3.47
2022-08-25T00:17:51.939Z,3.47
2022-08-25T00:20:20.257Z,3.28
2022-08-25T00:22:49.016Z,2.83
2022-08-25T00:25:17.094Z,2.65
2022-08-25T00:27:45.816Z,4.00
2022-08-25T00:30:16.634Z,3.50
2022-08-25T00:32:48.916Z,4.43
2022-08-25T00:35:23.858Z,2.85
2022-08-25T00:37:51.502Z,2.45
2022-08-25T00:40:19.138Z,2.25
2022-08-25T00:42:46.994Z,2.40
2022-08-25T00:45:14.692Z,2.70
2022-08-25T00:47:42.478Z,2.50
2022-08-25T00:50:11.180Z,2.80
2022-08-25T00:52:44.921Z,2.53
2022-08-25T00:55:21.575Z,2.60
2022-08-25T00:57:55.446Z,2.90
2022-08-25T01:00:28.715Z,2.83
2022-08-25T01:02:57.939Z,2.30
2022-08-25T01:05:27.153Z,2.80
2022-08-25T01:07:58.761Z,2.78
2022-08-25T01:10:31.900Z,3.50
2022-08-25T01:13:26.422Z,3.08
2022-08-25T01:15:56.296Z,2.85
2022-08-25T01:18:25.063Z,3.30
2022-08-25T01:20:54.859Z,3.13
2022-08-25T01:23:24.745Z,3.08
2022-08-25T01:26:09.881Z,3.10
2022-08-25T01:28:38.448Z,3.38
2022-08-25T01:31:23.738Z,3.60
2022-08-25T01:33:52.167Z,3.65
2022-08-25T01:36:21.325Z,3.47
2022-08-25T01:38:49.298Z,4.85
2022-08-25T01:41:25.880Z,5.13
2022-08-25T01:43:53.482Z,4.10
2022-08-25T01:46:21.259Z,4.40
2022-08-25T01:48:49.002Z,5.50
2022-08-25T01:51:19.216Z,4.72
2022-08-25T01:53:47.019Z,5.38
2022-08-25T01:56:16.628Z,5.72
2022-08-25T01:58:49.752Z,5.45
2022-08-25T02:01:21.023Z,7.05
2022-08-25T02:03:51.383Z,6.78
2022-08-25T02:06:28.884Z,7.93
2022-08-25T02:09:01.162Z,6.60
2022-08-25T02:11:29.024Z,6.45
2022-08-25T02:13:56.637Z,8.43
2022-08-25T02:16:28.605Z,7.38
2022-08-25T02:18:57.093Z,8.70
2022-08-25T02:21:25.303Z,10.35
2022-08-25T02:23:53.579Z,9.83
2022-08-25T02:26:21.187Z,9.30
2022-08-25T02:28:50.941Z,10.35
2022-08-25T02:31:21.760Z,11.77
2022-08-25T02:33:50.498Z,11.57
2022-08-25T02:36:19.204Z,11.35
2022-08-25T02:38:47.265Z,11.88
2022-08-25T02:41:20.935Z,13.00
2022-08-25T02:43:49.919Z,11.38
2022-08-25T02:48:47.869Z,7.25
2022-08-25T02:51:15.568Z,7.78
2022-08-25T02:53:46.040Z,7.13
2022-08-25T02:56:15.273Z,6.63
2022-08-25T02:58:43.297Z,6.50
2022-08-25T03:01:12.111Z,6.50
2022-08-25T03:03:40.711Z,5.95
2022-08-25T03:06:11.348Z,6.43
2022-08-25T03:08:39.961Z,6.28
2022-08-25T03:11:07.912Z,5.40
2022-08-25T03:13:35.861Z,6.40
2022-08-25T03:16:05.384Z,5.38
2022-08-25T03:18:40.900Z,5.40
2022-08-25T03:21:09.813Z,5.32
2022-08-25T03:23:37.484Z,4.28
2022-08-25T03:26:23.694Z,4.88
2022-08-25T03:28:51.450Z,4.22
2022-08-25T03:31:19.295Z,3.90
2022-08-25T03:33:46.980Z,4.57
2022-08-25T03:36:14.948Z,3.78
2022-08-25T03:38:43.148Z,4.17
2022-08-25T03:41:20.528Z,3.85
2022-08-25T03:43:48.896Z,3.38
2022-08-25T03:46:19.587Z,3.45
2022-08-25T03:48:48.841Z,3.75
2022-08-25T03:51:33.702Z,3.97
2022-08-25T03:54:02.484Z,4.28
2022-08-25T03:56:30.634Z,3.95
2022-08-25T03:58:58.502Z,2.83
2022-08-25T04:01:27.340Z,4.03
2022-08-25T04:03:55.285Z,4.30
2022-08-25T04:06:23.409Z,5.40
2022-08-25T04:08:52.956Z,5.43
2022-08-25T04:11:23.253Z,7.82
2022-08-25T04:13:52.460Z,8.60
2022-08-25T04:16:23.771Z,8.00
2022-08-25T04:18:53.840Z,7.35
2022-08-25T04:21:22.902Z,8.00
2022-08-25T04:23:52.175Z,7.90
2022-08-25T04:26:37.320Z,7.43
2022-08-25T04:29:07.854Z,7.05
2022-08-25T04:31:36.191Z,7.13
2022-08-25T04:34:14.312Z,7.80
2022-08-25T04:36:53.569Z,8.32
2022-08-25T04:39:21.785Z,8.07
2022-08-25T04:41:50.545Z,7.50
2022-08-25T04:44:18.154Z,6.65
2022-08-25T04:46:46.038Z,6.05
2022-08-25T04:49:13.629Z,5.05
2022-08-25T04:51:41.998Z,5.88
2022-08-25T04:54:13.059Z,5.93
2022-08-25T04:56:41.400Z,7.00
2022-08-25T04:59:12.217Z,8.43
2022-08-25T05:01:41.878Z,11.73
2022-08-25T05:04:12.421Z,10.93
2022-08-25T05:06:55.410Z,12.70
2022-08-25T05:09:23.360Z,13.82
2022-08-25T05:11:54.514Z,13.52
2022-08-25T05:14:26.436Z,15.00
2022-08-25T05:16:58.074Z,16.27
2022-08-25T05:19:26.868Z,15.13
2022-08-25T05:21:54.593Z,14.40
2022-08-25T05:24:26.168Z,14.85
2022-08-25T05:26:53.969Z,15.88
2022-08-25T05:29:21.998Z,15.98
2022-08-25T05:31:50.935Z,17.98
2022-08-25T05:34:19.974Z,16.10
2022-08-25T05:36:48.839Z,18.08
2022-08-25T05:41:44.419Z,17.58
2022-08-25T05:44:15.116Z,18.80
2022-08-25T05:46:45.619Z,20.45
2022-08-25T05:49:13.195Z,20.08
2022-08-25T05:51:41.025Z,18.77
2022-08-25T05:54:08.682Z,17.92
2022-08-25T05:56:36.352Z,17.20
2022-08-25T05:59:08.676Z,16.67
2022-08-25T06:01:55.588Z,16.08
2022-08-25T06:04:23.403Z,16.67
2022-08-25T06:06:53.911Z,18.27
2022-08-25T06:09:22.543Z,17.40
2022-08-25T06:11:54.521Z,19.02
2022-08-25T06:14:24.050Z,17.15
2022-08-25T06:19:20.492Z,17.37
2022-08-25T06:21:48.140Z,15.90
2022-08-25T06:24:16.005Z,16.05
2022-08-25T06:26:44.358Z,16.52
2022-08-25T06:29:14.254Z,15.35
2022-08-25T06:31:43.228Z,15.32
2022-08-25T06:34:11.696Z,15.68
2022-08-25T06:36:39.764Z,14.18
2022-08-25T06:39:08.059Z,13.10
2022-08-25T06:41:39.107Z,11.90
2022-08-25T06:44:07.099Z,13.95
2022-08-25T06:46:36.284Z,12.68
2022-08-25T06:49:06.674Z,12.20
2022-08-25T06:51:36.263Z,13.52
2022-08-25T06:54:06.617Z,11.85
2022-08-25T06:56:34.768Z,11.23
2022-08-25T06:59:04.161Z,12.67
2022-08-25T07:01:33.531Z,11.18
2022-08-25T07:04:04.995Z,9.93
2022-08-25T07:06:36.053Z,11.02
2022-08-25T07:09:08.757Z,11.73
2022-08-25T07:11:36.743Z,10.27
2022-08-25T07:14:06.628Z,10.32
2022-08-25T07:16:36.075Z,10.55
2022-08-25T07:19:05.406Z,9.38
2022-08-25T07:21:35.939Z,10.05
2022-08-25T07:24:09.779Z,9.00
2022-08-25T07:26:39.344Z,10.02
2022-08-25T07:29:14.018Z,8.50
2022-08-25T07:31:42.073Z,9.27
2022-08-25T07:34:28.780Z,7.78
2022-08-25T07:36:57.439Z,9.57
2022-08-25T07:39:26.417Z,9.65
2022-08-25T07:41:54.539Z,9.77
2022-08-25T07:44:23.445Z,10.23
2022-08-25T07:46:51.999Z,9.65
2022-08-25T07:49:23.731Z,9.05
2022-08-25T07:52:05.564Z,8.63
2022-08-25T07:54:38.151Z,7.90
2022-08-25T07:57:09.043Z,8.02
2022-08-25T07:59:41.967Z,9.52
2022-08-25T08:02:18.141Z,9.65
2022-08-25T08:04:53.893Z,10.02
2022-08-25T08:07:42.064Z,9.13
2022-08-25T08:13:02.235Z,7.78
2022-08-25T08:15:30.531Z,7.78
2022-08-25T08:17:59.875Z,7.35
2022-08-25T08:20:29.002Z,6.10
2022-08-25T08:22:57.201Z,7.10
2022-08-25T08:25:27.171Z,7.90
2022-08-25T08:27:55.931Z,7.28
2022-08-25T08:30:26.304Z,6.90
2022-08-25T08:33:11.672Z,5.78
2022-08-25T08:35:43.359Z,5.93
2022-08-25T08:38:17.258Z,7.18
2022-08-25T08:41:23.037Z,7.20
2022-08-25T08:44:00.234Z,7.32
2022-08-25T08:46:41.039Z,7.47
2022-08-25T08:49:23.142Z,7.15
2022-08-25T08:52:01.776Z,6.63
2022-08-25T08:54:36.245Z,6.13
2022-08-25T08:57:19.731Z,6.15
2022-08-25T08:59:55.393Z,5.80
2022-08-25T09:02:39.614Z,5.70
2022-08-25T09:05:23.033Z,5.35
2022-08-25T09:07:56.958Z,6.78
2022-08-25T09:10:29.018Z,7.30
2022-08-25T09:13:15.677Z,6.97
2022-08-25T09:16:20.537Z,5.07
2022-08-25T09:19:51.632Z,6.50
2022-08-25T09:22:35.454Z,6.65
2022-08-25T09:25:53.543Z,7.03
2022-08-25T09:28:28.373Z,6.25
2022-08-25T09:31:12.518Z,5.95
2022-08-25T09:33:41.642Z,6.63
2022-08-25T09:36:13.175Z,7.03
2022-08-25T09:38:41.099Z,6.88
2022-08-25T09:41:08.998Z,7.90
2022-08-25T09:43:42.366Z,7.72
2022-08-25T09:46:20.849Z,7.25
2022-08-25T09:48:57.602Z,6.70
2022-08-25T09:51:29.298Z,6.22
2022-08-25T09:54:15.763Z,6.90
2022-08-25T09:56:50.918Z,6.40
2022-08-25T09:59:34.734Z,6.82
2022-08-25T10:02:26.052Z,7.10
2022-08-25T10:04:55.933Z,5.72
2022-08-25T10:07:39.740Z,5.78
2022-08-25T10:10:22.995Z,5.78
2022-08-25T10:12:51.724Z,5.80
2022-08-25T10:15:34.862Z,6.13
2022-08-25T10:18:32.054Z,6.22
2022-08-25T10:21:09.222Z,6.00
2022-08-25T10:23:44.916Z,6.17
2022-08-25T10:26:34.816Z,7.22
2022-08-25T10:29:09.854Z,6.78
2022-08-25T10:32:11.489Z,6.57
2022-08-25T10:34:54.695Z,7.10
2022-08-25T10:37:50.249Z,7.60
2022-08-25T10:40:28.656Z,6.97
2022-08-25T10:43:07.949Z,7.55
2022-08-25T10:45:49.590Z,7.10
2022-08-25T10:48:40.968Z,6.85
2022-08-25T10:51:25.703Z,5.45
2022-08-25T10:54:02.327Z,5.40
2022-08-25T10:56:41.493Z,6.15
2022-08-25T10:59:35.558Z,6.38
2022-08-25T11:02:20.939Z,5.30
2022-08-25T11:05:07.901Z,4.78
2022-08-25T11:07:45.461Z,5.22
2022-08-25T11:10:22.646Z,5.63
2022-08-25T11:12:56.946Z,5.53
2022-08-25T11:15:41.431Z,4.00
2022-08-25T11:18:17.894Z,3.88
2022-08-25T11:21:08.673Z,3.45
2022-08-25T11:23:41.665Z,4.13
2022-08-25T11:26:12.383Z,4.13
2022-08-25T11:29:11.502Z,3.53
2022-08-25T11:31:47.342Z,3.92
2022-08-25T11:34:21.723Z,3.70
2022-08-25T11:37:01.296Z,3.95
2022-08-25T11:40:07.270Z,4.82
2022-08-25T11:42:58.379Z,2.90
2022-08-25T11:45:48.363Z,2.92
2022-08-25T11:48:29.006Z,2.80
2022-08-25T11:51:04.862Z,2.88
2022-08-25T11:53:37.667Z,2.70
2022-08-25T11:56:36.409Z,2.50
2022-08-25T11:59:08.725Z,2.55
2022-08-25T12:01:46.147Z,2.22
2022-08-25T12:04:37.812Z,2.58
2022-08-25T12:07:21.023Z,2.72
2022-08-25T12:09:54.176Z,3.45
2022-08-25T12:12:32.796Z,2.80
2022-08-25T12:15:31.424Z,3.30
2022-08-25T12:20:55.368Z,2.40
2022-08-25T12:23:44.941Z,2.85
2022-08-25T12:26:24.841Z,3.28
2022-08-25T12:29:02.325Z,3.25
2022-08-25T12:31:59.218Z,2.80
2022-08-25T12:35:00.579Z,3.30
2022-08-25T12:37:28.947Z,2.08
2022-08-25T12:40:05.894Z,2.25
2022-08-25T12:42:38.268Z,2.97
2022-08-25T12:45:21.268Z,2.60
2022-08-25T12:47:50.073Z,3.38
2022-08-25T12:50:33.629Z,1.55
2022-08-25T12:53:38.993Z,1.70
2022-08-25T12:56:27.821Z,2.03
2022-08-25T12:59:16.386Z,2.15
2022-08-25T13:02:11.070Z,2.50
2022-08-25T13:04:58.785Z,2.53
2022-08-25T13:07:57.005Z,1.10
2022-08-25T13:11:12.348Z,1.85
2022-08-25T13:13:57.679Z,1.08
2022-08-25T13:16:29.913Z,1.60
2022-08-25T13:18:59.683Z,1.30
2022-08-25T13:21:39.061Z,1.00
2022-08-25T13:24:17.608Z,1.42
2022-08-25T13:26:48.250Z,1.65
2022-08-25T13:29:21.284Z,1.60
2022-08-25T13:31:57.084Z,1.88
2022-08-25T13:34:34.694Z,2.85
2022-08-25T13:40:19.647Z,1.30
2022-08-25T13:42:55.522Z,1.48
2022-08-25T13:45:31.958Z,1.48
2022-08-25T13:47:59.879Z,1.20
2022-08-25T13:50:28.451Z,1.77
2022-08-25T13:55:51.502Z,1.48
2022-08-25T13:58:38.683Z,1.98
2022-08-25T14:01:47.153Z,1.48
2022-08-25T14:04:51.664Z,1.02
2022-08-25T14:07:23.187Z,1.58
2022-08-25T14:10:01.197Z,1.95
2022-08-25T14:15:17.609Z,1.92
2022-08-25T14:18:05.974Z,1.48
2022-08-25T14:20:36.121Z,1.50
2022-08-25T14:23:18.754Z,1.38
2022-08-25T14:25:47.757Z,1.00
2022-08-25T14:28:18.920Z,0.98
2022-08-25T14:30:54.310Z,1.05
2022-08-25T14:33:28.668Z,1.45
2022-08-25T14:35:59.889Z,1.50
2022-08-25T14:38:27.470Z,2.42
2022-08-25T14:40:55.330Z,1.10
2022-08-25T14:43:32.101Z,1.75
2022-08-25T14:46:03.196Z,1.08
2022-08-25T14:48:39.372Z,1.20
2022-08-25T14:51:09.020Z,1.10
2022-08-25T14:53:36.673Z,1.77
2022-08-25T14:56:06.891Z,1.23
2022-08-25T14:58:51.030Z,0.98
2022-08-25T15:01:28.389Z,1.15
2022-08-25T15:04:20.523Z,1.15
2022-08-25T15:06:54.770Z,1.40
2022-08-25T15:09:24.211Z,1.20
2022-08-25T15:11:55.166Z,1.27
2022-08-25T15:14:29.057Z,1.70
2022-08-25T15:17:02.993Z,1.23
2022-08-25T15:19:31.064Z,1.33
2022-08-25T15:21:59.849Z,1.10
2022-08-25T15:24:28.401Z,0.98
2022-08-25T15:27:01.270Z,1.88
2022-08-25T15:29:30.886Z,0.98
2022-08-25T15:32:00.317Z,1.13
2022-08-25T15:34:29.310Z,0.80
2022-08-25T15:36:58.478Z,1.00
2022-08-25T15:39:28.485Z,1.40
2022-08-25T15:41:57.150Z,1.05
2022-08-25T15:44:29.391Z,0.82
2022-08-25T15:46:59.424Z,1.20
2022-08-25T15:49:29.719Z,0.90
2022-08-25T15:51:59.305Z,0.70
2022-08-25T15:54:30.770Z,0.98
2022-08-25T15:56:59.933Z,1.05
2022-08-25T15:59:28.451Z,0.93
2022-08-25T16:01:56.740Z,1.08
2022-08-25T16:04:27.664Z,1.17
2022-08-25T16:06:56.147Z,1.00
2022-08-25T16:09:24.069Z,1.35
2022-08-25T16:11:56.769Z,0.90
2022-08-25T16:14:27.836Z,1.42
2022-08-25T16:16:58.438Z,1.00
2022-08-25T16:19:30.350Z,1.15
2022-08-25T16:21:59.959Z,1.50
2022-08-25T16:24:29.807Z,1.30
2022-08-25T16:27:11.665Z,1.20
2022-08-25T16:29:42.317Z,1.65
2022-08-25T16:32:13.544Z,1.48
2022-08-25T16:34:42.039Z,1.30
2022-08-25T16:37:09.888Z,1.58
2022-08-25T16:39:40.054Z,1.40
2022-08-25T16:42:09.024Z,1.92
2022-08-25T16:44:37.514Z,1.85
2022-08-25T16:47:08.778Z,1.25
2022-08-25T16:49:37.254Z,1.40
2022-08-25T16:52:28.289Z,1.50
2022-08-25T16:55:16.178Z,1.52
2022-08-25T16:57:53.571Z,1.03
2022-08-25T17:00:24.938Z,1.80
2022-08-25T17:03:00.785Z,1.90
2022-08-25T17:05:29.486Z,2.13
2022-08-25T17:08:18.346Z,1.52
2022-08-25T17:10:46.584Z,1.50
2022-08-25T17:13:14.498Z,1.27
2022-08-25T17:15:45.018Z,1.70
2022-08-25T17:18:13.797Z,1.52
2022-08-25T17:20:44.808Z,1.23
2022-08-25T17:23:13.084Z,1.85
2022-08-25T17:25:42.801Z,1.75
2022-08-25T17:28:12.975Z,1.42
2022-08-25T17:30:40.984Z,1.77
2022-08-25T17:33:08.709Z,2.08
2022-08-25T17:35:41.420Z,2.05
2022-08-25T17:38:09.713Z,2.08
2022-08-25T17:40:38.015Z,1.60
2022-08-25T17:43:09.071Z,2.22
2022-08-25T17:45:39.111Z,2.25
2022-08-25T17:48:09.198Z,1.88
2022-08-25T17:50:39.206Z,1.30
2022-08-25T17:53:09.354Z,1.20
2022-08-25T17:55:38.696Z,2.95
2022-08-25T17:58:11.927Z,1.98
2022-08-25T18:00:43.914Z,1.33
2022-08-25T18:03:12.261Z,1.30
2022-08-25T18:05:40.159Z,1.73
2022-08-25T18:08:10.569Z,2.05
2022-08-25T18:10:39.624Z,2.45
2022-08-25T18:13:07.602Z,2.13
2022-08-25T18:15:35.661Z,1.77
2022-08-25T18:18:04.689Z,1.92
2022-08-25T18:20:32.957Z,2.15
2022-08-25T18:23:19.873Z,1.33
2022-08-25T18:26:06.765Z,1.42
2022-08-25T18:28:53.512Z,1.23
2022-08-25T18:31:21.518Z,1.63
2022-08-25T18:33:50.871Z,2.28
2022-08-25T18:36:22.618Z,1.98
2022-08-25T18:39:10.775Z,1.45
2022-08-25T18:41:45.189Z,1.52
2022-08-25T18:44:13.062Z,1.48
2022-08-25T18:46:45.550Z,1.35
2022-08-25T18:49:15.795Z,1.55
2022-08-25T18:51:45.129Z,1.65
2022-08-25T18:54:22.843Z,1.48
2022-08-25T18:56:53.496Z,1.58
2022-08-25T18:59:23.678Z,1.48
2022-08-25T19:01:53.975Z,1.67
2022-08-25T19:04:28.358Z,1.90
2022-08-25T19:07:00.962Z,1.40
2022-08-25T19:09:29.693Z,1.23
2022-08-25T19:11:59.047Z,2.00
2022-08-25T19:14:27.156Z,2.30
2022-08-25T19:16:57.818Z,2.07
2022-08-25T19:19:25.971Z,1.67
2022-08-25T19:21:53.784Z,1.50
2022-08-25T19:24:21.657Z,1.52
2022-08-25T19:26:53.789Z,1.30
2022-08-25T19:29:23.174Z,1.20
2022-08-25T19:31:51.328Z,1.50
2022-08-25T19:34:28.306Z,1.50
2022-08-25T19:37:01.216Z,1.55
2022-08-25T19:39:30.266Z,0.95
2022-08-25T19:41:58.482Z,1.63
2022-08-25T19:44:28.203Z,1.65
2022-08-25T19:46:57.165Z,1.40
2022-08-25T19:49:31.487Z,1.35
2022-08-25T19:52:01.112Z,1.10
2022-08-25T19:54:33.376Z,2.45
2022-08-25T19:57:02.733Z,2.47
2022-08-25T19:59:42.607Z,1.98
2022-08-25T20:02:15.374Z,2.15
2022-08-25T20:04:49.768Z,3.25
2022-08-25T20:07:21.208Z,2.63
2022-08-25T20:09:49.399Z,2.50
2022-08-25T20:12:18.301Z,3.13
2022-08-25T20:14:47.187Z,3.10
2022-08-25T20:17:23.766Z,2.72
2022-08-25T20:19:59.303Z,2.03
2022-08-25T20:22:30.780Z,2.15
2022-08-25T20:25:07.610Z,2.22
2022-08-25T20:27:51.149Z,1.90
2022-08-25T20:30:25.252Z,3.53
2022-08-25T20:32:55.718Z,1.98
2022-08-25T20:35:26.834Z,2.33
2022-08-25T20:37:58.176Z,2.35
2022-08-25T20:40:29.962Z,1.80
2022-08-25T20:43:03.320Z,1.38
2022-08-25T20:45:31.616Z,2.40
2022-08-25T20:47:59.611Z,1.52
2022-08-25T20:50:28.597Z,2.10
2022-08-25T20:52:58.322Z,2.15
2022-08-25T20:55:27.817Z,2.42
2022-08-25T21:00:24.913Z,2.00
2022-08-25T21:02:53.487Z,2.25
2022-08-25T21:05:21.712Z,2.33
2022-08-25T21:07:49.360Z,2.28
2022-08-25T21:10:17.299Z,3.00
2022-08-25T21:12:45.318Z,3.22
2022-08-25T21:15:13.824Z,1.65
2022-08-25T21:17:50.662Z,1.92
2022-08-25T21:20:18.642Z,2.45
2022-08-25T21:22:46.197Z,1.48
2022-08-25T21:25:14.553Z,2.75
2022-08-25T21:27:43.346Z,3.17
2022-08-25T21:32:39.005Z,2.60
2022-08-25T21:35:07.940Z,2.37
2022-08-25T21:37:36.001Z,2.40
2022-08-25T21:40:06.999Z,2.15
2022-08-25T21:42:36.814Z,2.30
2022-08-25T21:45:04.997Z,2.40
2022-08-25T21:47:42.543Z,2.03
2022-08-25T21:50:11.993Z,1.95
2022-08-25T21:52:43.528Z,2.78
2022-08-25T21:55:15.833Z,3.97
2022-08-25T21:57:44.309Z,2.80
2022-08-25T22:00:14.834Z,2.40
2022-08-25T22:02:46.677Z,3.85
2022-08-25T22:05:15.454Z,2.55
2022-08-25T22:07:44.347Z,3.60
2022-08-25T22:10:16.695Z,2.00
2022-08-25T22:12:47.208Z,3.70
2022-08-25T22:15:17.928Z,2.40
2022-08-25T22:17:48.091Z,2.38
2022-08-25T22:20:17.919Z,1.67
2022-08-25T22:22:45.760Z,2.03
2022-08-25T22:25:14.595Z,2.40
2022-08-25T22:27:42.571Z,2.72
2022-08-25T22:32:39.407Z,2.03
2022-08-25T22:35:08.312Z,1.50
2022-08-25T22:37:37.436Z,1.75
2022-08-25T22:40:05.985Z,2.08
2022-08-25T22:42:33.889Z,2.85
2022-08-25T22:45:01.668Z,1.88
2022-08-25T22:47:29.269Z,2.08
2022-08-25T22:49:59.092Z,2.08
2022-08-25T22:52:33.240Z,1.98
2022-08-25T22:55:02.876Z,2.17
2022-08-25T22:59:59.353Z,1.93
2022-08-25T23:02:30.332Z,2.05
2022-08-25T23:05:00.808Z,2.25
2022-08-25T23:07:29.026Z,2.00
2022-08-25T23:09:59.867Z,1.48
2022-08-25T23:12:27.586Z,2.00
2022-08-25T23:14:55.873Z,1.80
2022-08-25T23:17:23.546Z,2.20
2022-08-25T23:19:51.398Z,1.65
2022-08-25T23:22:19.852Z,1.73
2022-08-25T23:24:52.066Z,2.28
2022-08-25T23:27:22.144Z,1.50
2022-08-25T23:29:50.265Z,2.25
2022-08-25T23:32:18.728Z,1.75
2022-08-25T23:34:47.182Z,1.98
2022-08-25T23:37:16.259Z,2.15
2022-08-25T23:39:49.946Z,1.88
2022-08-25T23:42:19.950Z,1.77
2022-08-25T23:44:48.767Z,2.35
2022-08-25T23:47:16.792Z,2.50
2022-08-25T23:49:45.125Z,2.30
2022-08-25T23:52:12.698Z,1.73
2022-08-25T23:54:40.332Z,2.15
2022-08-25T23:57:08.834Z,1.20
2022-08-25T23:59:37.841Z,2.35
